Huvudsida
METAR-TAF:

METAR-TAF

Flygplatser :

Minneapolis, Minnesota, USA

latitud: 44-52-59N, longitud: 093-13-44W, höjd: 256 m

Aktuellt väderrapport

Denna rapport gjordes för 39 minuter sedan, klockan 08:53 UTC
Vind 5 kt från väst/sydväst
Temperatur 1°C
Fuktighet 80%
Tryck 1018 hPa
Sikt: 16.1 km
Klar himmel

METAR: KMSP 160853Z 25005KT 10SM CLR 01/M02 A3005 RMK AO2 SLP183 T00111022 53007

Tid: 03:32 (09:32 UTC)

Väderprognos

Denna rapport gjordes för 47 minuter sedan, klockan 08:45 UTC
Prognos gäller från 16 kl. 09 UTC till 17 kl. 12 UTC
Vind 6 kt från sydväst
Sikt: 10 km
Få moln på en höjd av 20000 ft
Från 16 kl. 1500 UTC
Vind 5 kt från väst
Sikt: 10 km
Spridda moln på en höjd av 20000 ft
Från 17 kl. 0500 UTC
Vind 5 kt från nordväst
Sikt: 10 km
Få moln på en höjd av 20000 ft

TAF: KMSP 160845Z 1609/1712 23006KT P6SM FEW200 FM161500 28005KT P6SM SCT200 FM170500 31005KT P6SM FEW200

Aktuella väderrapporter och prognoser från 4000 flygplatser (METAR- och TAF-rapporter).

De tillgängliga stationerna syns som gula och röda prickar på kartan.

För musen över prickarna för att se namnen på stationerna.

Klicka sedan för att få väderrapporter och prognoser.

För att ändra kartan: Klicka på de gröna knapparna med ett svart kors på för att zooma in; den gröna knappen med ett streck på för att zooma ut; eller på de gröna pilarna för angränsande kartor.


METAR-TAF: